Nordic Philip — 5BZH2 — position and weather

sailwx.info

Track history (hours):
 
Tides and Currents Weather Stations Pressure Air Temp Water Temp Dewpoint Dewpoint Depression Visibility Wind Speed Wind Dir Waves Ship Positions

Nordic Philip

Last reported at 2014-Jul-24 17:33 UTC. Time now 2014-Jul-24 17:49 UTC.
Position N 56°49' E 018°31'.

Length 151 m; draft 8.2 m.

Type: Ship (hazmat cat A). MMSI: 212018000.

Date/timePositionNaut miles runAvg speedWind from/ knotsBaromVisibWave heightAir tempDewpointWater temp
2014-Jul-24 17:33N 56°49' E 018°31'1514.6
2014-Jul-24 16:33N 56°40' E 018°11'1514.9
2014-Jul-24 15:33N 56°31' E 017°49'1514.6
2014-Jul-24 14:33N 56°22' E 017°28'1514.6
2014-Jul-24 13:33N 56°13' E 017°07'1514.5
2014-Jul-24 12:33N 56°04' E 016°47'1414.5
2014-Jul-24 11:33N 55°56' E 016°25'1414.5
2014-Jul-24 10:33N 55°50' E 016°02'1414.5
2014-Jul-24 09:33N 55°43' E 015°39'1414.2
2014-Jul-24 08:33N 55°36' E 015°18'1414.1
2014-Jul-24 07:33N 55°29' E 014°56'1414.1
2014-Jul-24 06:33N 55°21' E 014°35'1414.5
2014-Jul-24 05:33N 55°10' E 014°19'1414.1
2014-Jul-24 04:33N 55°00' E 014°01'1514.7
2014-Jul-24 03:33N 54°56' E 013°37'1414.4
2014-Jul-24 02:33N 54°50' E 013°13'1514.5
2014-Jul-24 01:33N 54°45' E 012°50'1414.5
2014-Jul-24 00:33N 54°39' E 012°27'1313.0
2014-Jul-23 23:33N 54°28' E 012°14'1212.0
2014-Jul-23 22:33N 54°25' E 011°55'1414.1
2014-Jul-23 21:33N 54°29' E 011°32'1414.2
2014-Jul-23 20:33N 54°35' E 011°10'1413.9
2014-Jul-23 19:32N 54°34' E 010°45'1813.7
2014-Jul-23 18:14N 54°28' E 010°16'34 5.7
2014-Jul-23 12:09N 54°10' E 009°26'5 7.5
2014-Jul-23 11:27N 54°07' E 009°20'8 8.0
2014-Jul-23 10:30N 53°59' E 009°17'7 6.9
2014-Jul-23 09:31N 53°54' E 009°09'1 1.5
2014-Jul-23 08:33N 53°53' E 009°07'4 3.5
2014-Jul-23 07:32N 53°53' E 009°13'1413.7
2014-Jul-23 06:33N 53°43' E 009°29'1312.8
2014-Jul-23 05:33N 53°34' E 009°44'7 6.9
2014-Jul-23 04:31N 53°32' E 009°55'0 0.0
2014-Jul-23 03:31N 53°32' E 009°55'0 0.0
2014-Jul-23 02:31N 53°32' E 009°55'0 0.0
2014-Jul-23 01:31N 53°32' E 009°55'0 0.0
2014-Jul-23 00:31N 53°32' E 009°55'0 0.0
2014-Jul-22 23:31N 53°32' E 009°55'0 0.0
2014-Jul-22 22:31N 53°32' E 009°55'0 0.1
2014-Jul-22 21:28N 53°32' E 009°55'1 1.5
2014-Jul-22 20:33N 53°30' E 009°56'0 0.0
2014-Jul-22 19:33N 53°30' E 009°56'0 0.0
2014-Jul-22 18:30N 53°30' E 009°56'0 0.0
2014-Jul-22 17:30N 53°30' E 009°56'0 0.0
2014-Jul-22 16:30N 53°30' E 009°56'0 0.0
2014-Jul-22 15:33N 53°30' E 009°56'0 0.0
2014-Jul-22 14:33N 53°30' E 009°56'0 0.0
2014-Jul-22 12:27N 53°30' E 009°56'0 0.0
2014-Jul-22 11:30N 53°30' E 009°56'0 0.0
2014-Jul-22 10:30N 53°30' E 009°56'0 0.0
2014-Jul-22 09:33N 53°30' E 009°56'0 0.0
2014-Jul-22 08:33N 53°30' E 009°56'0 0.0
2014-Jul-22 07:30N 53°30' E 009°56'0 0.0
2014-Jul-22 06:33N 53°30' E 009°56'0 0.0
2014-Jul-22 05:30N 53°30' E 009°56'0 0.0
2014-Jul-22 04:24N 53°30' E 009°56'0 0.0
2014-Jul-22 03:33N 53°30' E 009°56'0 0.0
2014-Jul-22 02:33N 53°30' E 009°56'0 0.0
2014-Jul-22 01:30N 53°30' E 009°56'0 0.0
2014-Jul-22 00:30N 53°30' E 009°56'0 0.0
2014-Jul-21 23:33N 53°30' E 009°56'0 0.0
2014-Jul-21 22:33N 53°30' E 009°56'1 1.0
2014-Jul-21 21:33N 53°31' E 009°56'8 8.1
2014-Jul-21 20:34N 53°34' E 009°43'414.1
2014-Jul-21 20:18N 53°35' E 009°37'1316.9
2014-Jul-21 19:33N 53°45' E 009°25'1312.8
2014-Jul-21 18:33N 53°54' E 009°09'1 0.7
2014-Jul-21 17:33N 53°54' E 009°09'4 3.9
2014-Jul-21 16:33N 53°57' E 009°14'8 7.9
2014-Jul-21 15:31N 54°05' E 009°19'8 7.6
2014-Jul-21 14:32N 54°10' E 009°27'4 3.7
2014-Jul-21 13:30N 54°12' E 009°33'49 5.4
2014-Jul-21 04:28N 54°35' E 010°47'1313.9
2014-Jul-21 03:34N 54°36' E 011°09'1514.7
2014-Jul-21 02:34N 54°30' E 011°32'1514.6
2014-Jul-21 01:34N 54°27' E 011°56'1212.4
2014-Jul-21 00:33N 54°33' E 012°15'1515.4
2014-Jul-20 23:33N 54°44' E 012°33'1414.2
2014-Jul-20 22:34N 54°47' E 012°57'1615.5
2014-Jul-20 21:34N 54°47' E 013°24'1514.9
2014-Jul-20 20:33N 54°44' E 013°49'1514.9
2014-Jul-20 19:33N 54°39' E 014°14'1514.7
2014-Jul-20 18:34N 54°39' E 014°39'1515.0
2014-Jul-20 17:34N 54°41' E 015°05'1515.0
2014-Jul-20 16:34N 54°43' E 015°31'1514.8
2014-Jul-20 15:34N 54°45' E 015°56'1514.8
2014-Jul-20 14:34N 54°48' E 016°21'1514.8
2014-Jul-20 13:33N 54°51' E 016°47'1515.1
2014-Jul-20 12:34N 54°54' E 017°12'1514.9
2014-Jul-20 11:33N 54°55' E 017°38'1515.0
2014-Jul-20 10:34N 54°56' E 018°04'1515.0
2014-Jul-20 09:33N 54°55' E 018°30'1515.2
2014-Jul-20 08:33N 54°45' E 018°50'1111.4
2014-Jul-20 07:34N 54°33' E 018°50'1110.7
2014-Jul-20 06:33N 54°32' E 018°32'1 0.2
2014-Jul-20 01:30N 54°33' E 018°31'0 0.0
2014-Jul-20 00:30N 54°33' E 018°31'0 0.0
2014-Jul-19 23:33N 54°33' E 018°31'0 0.0
2014-Jul-19 22:33N 54°33' E 018°31'4 3.7
2014-Jul-19 21:34N 54°32' E 018°37'1212.1
2014-Jul-19 20:33N 54°38' E 018°55'1414.2
2014-Jul-19 19:33N 54°52' E 019°03'1514.7
2014-Jul-19 18:33N 55°06' E 019°11'1515.0
2014-Jul-19 17:33N 55°20' E 019°19'1515.1
2014-Jul-19 16:33N 55°34' E 019°27'1515.1
2014-Jul-19 15:33N 55°49' E 019°35'1515.0
2014-Jul-19 14:33N 56°03' E 019°44'1515.0
2014-Jul-19 13:33N 56°17' E 019°52'1514.9
2014-Jul-19 12:33N 56°31' E 020°00'1514.9
2014-Jul-19 11:33N 56°45' E 020°09'1514.9
2014-Jul-19 10:33N 56°60' E 020°17'16214.7
2014-Jul-18 23:33N 59°27' E 022°25'1514.8
2014-Jul-18 22:33N 59°33' E 022°52'1515.4
2014-Jul-18 21:33N 59°37' E 023°21'1515.2
2014-Jul-18 20:33N 59°42' E 023°49'1515.2
2014-Jul-18 19:34N 59°46' E 024°18'1515.0
2014-Jul-18 18:33N 59°49' E 024°47'1514.9
2014-Jul-18 17:34N 59°52' E 025°17'1515.2
2014-Jul-18 16:33N 59°55' E 025°46'1515.0
2014-Jul-18 15:33N 59°59' E 026°15'1414.5
2014-Jul-18 14:33N 60°01' E 026°44'1414.2
2014-Jul-18 13:33N 60°02' E 027°12'1515.1
2014-Jul-18 12:33N 60°10' E 027°38'7813.0
2014-Jul-18 06:33N 59°53' E 030°11'1 0.0
2014-Jul-17 02:09N 59°53' E 030°12'1 1.9
2014-Jul-17 01:34N 59°53' E 030°10'10511.1
2014-Jul-16 16:06N 59°60' E 026°40'1213.5
2014-Jul-16 15:14N 59°56' E 026°17'38114.3
2014-Jul-15 12:31N 56°04' E 016°47'3315.1
2014-Jul-15 10:19N 55°48' E 015°56'1515.5
2014-Jul-15 09:21N 55°40' E 015°33'1315.6
2014-Jul-15 08:32N 55°34' E 015°13'1515.4
2014-Jul-15 07:33N 55°27' E 014°50'1514.8
2014-Jul-15 06:34N 55°18' E 014°30'1514.8
2014-Jul-15 05:33N 55°06' E 014°13'1714.6
2014-Jul-15 04:26N 54°58' E 013°48'1315.0
2014-Jul-15 03:33N 54°54' E 013°27'1515.1
2014-Jul-15 02:33N 54°48' E 013°02'1514.7
2014-Jul-15 01:33N 54°43' E 012°39'1514.5
2014-Jul-15 00:33N 54°35' E 012°18'1313.2
2014-Jul-14 23:33N 54°25' E 012°03'1514.6
2014-Jul-14 22:33N 54°27' E 011°38'1515.1
2014-Jul-14 21:33N 54°34' E 011°15'1514.2
2014-Jul-14 20:30N 54°34' E 010°49'  
Track history (hours):
 
Tides and Currents Weather Stations Pressure Air Temp Water Temp Dewpoint Dewpoint Depression Visibility Wind Speed Wind Dir Waves Ship Positions

Nordic Philip

Last reported at 2014-Jul-24 17:33 UTC. Time now 2014-Jul-24 17:49 UTC.
Position N 56°49' E 018°31'.

Length 151 m; draft 8.2 m.

Type: Ship (hazmat cat A). MMSI: 212018000.

Date/timePositionNaut miles runAvg speedWind from/ knotsBaromVisibWave heightAir tempDewpointWater temp
2014-Jul-24 17:33N 56°49' E 018°31'1514.6
2014-Jul-24 16:33N 56°40' E 018°11'1514.9
2014-Jul-24 15:33N 56°31' E 017°49'1514.6
2014-Jul-24 14:33N 56°22' E 017°28'1514.6
2014-Jul-24 13:33N 56°13' E 017°07'1514.5
2014-Jul-24 12:33N 56°04' E 016°47'1414.5
2014-Jul-24 11:33N 55°56' E 016°25'1414.5
2014-Jul-24 10:33N 55°50' E 016°02'1414.5
2014-Jul-24 09:33N 55°43' E 015°39'1414.2
2014-Jul-24 08:33N 55°36' E 015°18'1414.1
2014-Jul-24 07:33N 55°29' E 014°56'1414.1
2014-Jul-24 06:33N 55°21' E 014°35'1414.5
2014-Jul-24 05:33N 55°10' E 014°19'1414.1
2014-Jul-24 04:33N 55°00' E 014°01'1514.7
2014-Jul-24 03:33N 54°56' E 013°37'1414.4
2014-Jul-24 02:33N 54°50' E 013°13'1514.5
2014-Jul-24 01:33N 54°45' E 012°50'1414.5
2014-Jul-24 00:33N 54°39' E 012°27'1313.0
2014-Jul-23 23:33N 54°28' E 012°14'1212.0
2014-Jul-23 22:33N 54°25' E 011°55'1414.1
2014-Jul-23 21:33N 54°29' E 011°32'1414.2
2014-Jul-23 20:33N 54°35' E 011°10'1413.9
2014-Jul-23 19:32N 54°34' E 010°45'1813.7
2014-Jul-23 18:14N 54°28' E 010°16'34 5.7
2014-Jul-23 12:09N 54°10' E 009°26'5 7.5
2014-Jul-23 11:27N 54°07' E 009°20'8 8.0
2014-Jul-23 10:30N 53°59' E 009°17'7 6.9
2014-Jul-23 09:31N 53°54' E 009°09'1 1.5
2014-Jul-23 08:33N 53°53' E 009°07'4 3.5
2014-Jul-23 07:32N 53°53' E 009°13'1413.7
2014-Jul-23 06:33N 53°43' E 009°29'1312.8
2014-Jul-23 05:33N 53°34' E 009°44'7 6.9
2014-Jul-23 04:31N 53°32' E 009°55'0 0.0
2014-Jul-23 03:31N 53°32' E 009°55'0 0.0
2014-Jul-23 02:31N 53°32' E 009°55'0 0.0
2014-Jul-23 01:31N 53°32' E 009°55'0 0.0
2014-Jul-23 00:31N 53°32' E 009°55'0 0.0
2014-Jul-22 23:31N 53°32' E 009°55'0 0.0
2014-Jul-22 22:31N 53°32' E 009°55'0 0.1
2014-Jul-22 21:28N 53°32' E 009°55'1 1.5
2014-Jul-22 20:33N 53°30' E 009°56'0 0.0
2014-Jul-22 19:33N 53°30' E 009°56'0 0.0
2014-Jul-22 18:30N 53°30' E 009°56'0 0.0
2014-Jul-22 17:30N 53°30' E 009°56'0 0.0
2014-Jul-22 16:30N 53°30' E 009°56'0 0.0
2014-Jul-22 15:33N 53°30' E 009°56'0 0.0
2014-Jul-22 14:33N 53°30' E 009°56'0 0.0
2014-Jul-22 12:27N 53°30' E 009°56'0 0.0
2014-Jul-22 11:30N 53°30' E 009°56'0 0.0
2014-Jul-22 10:30N 53°30' E 009°56'0 0.0
2014-Jul-22 09:33N 53°30' E 009°56'0 0.0
2014-Jul-22 08:33N 53°30' E 009°56'0 0.0
2014-Jul-22 07:30N 53°30' E 009°56'0 0.0
2014-Jul-22 06:33N 53°30' E 009°56'0 0.0
2014-Jul-22 05:30N 53°30' E 009°56'0 0.0
2014-Jul-22 04:24N 53°30' E 009°56'0 0.0
2014-Jul-22 03:33N 53°30' E 009°56'0 0.0
2014-Jul-22 02:33N 53°30' E 009°56'0 0.0
2014-Jul-22 01:30N 53°30' E 009°56'0 0.0
2014-Jul-22 00:30N 53°30' E 009°56'0 0.0
2014-Jul-21 23:33N 53°30' E 009°56'0 0.0
2014-Jul-21 22:33N 53°30' E 009°56'1 1.0
2014-Jul-21 21:33N 53°31' E 009°56'8 8.1
2014-Jul-21 20:34N 53°34' E 009°43'414.1
2014-Jul-21 20:18N 53°35' E 009°37'1316.9
2014-Jul-21 19:33N 53°45' E 009°25'1312.8
2014-Jul-21 18:33N 53°54' E 009°09'1 0.7
2014-Jul-21 17:33N 53°54' E 009°09'4 3.9
2014-Jul-21 16:33N 53°57' E 009°14'8 7.9
2014-Jul-21 15:31N 54°05' E 009°19'8 7.6
2014-Jul-21 14:32N 54°10' E 009°27'4 3.7
2014-Jul-21 13:30N 54°12' E 009°33'49 5.4
2014-Jul-21 04:28N 54°35' E 010°47'1313.9
2014-Jul-21 03:34N 54°36' E 011°09'1514.7
2014-Jul-21 02:34N 54°30' E 011°32'1514.6
2014-Jul-21 01:34N 54°27' E 011°56'1212.4
2014-Jul-21 00:33N 54°33' E 012°15'1515.4
2014-Jul-20 23:33N 54°44' E 012°33'1414.2
2014-Jul-20 22:34N 54°47' E 012°57'1615.5
2014-Jul-20 21:34N 54°47' E 013°24'1514.9
2014-Jul-20 20:33N 54°44' E 013°49'1514.9
2014-Jul-20 19:33N 54°39' E 014°14'1514.7
2014-Jul-20 18:34N 54°39' E 014°39'1515.0
2014-Jul-20 17:34N 54°41' E 015°05'1515.0
2014-Jul-20 16:34N 54°43' E 015°31'1514.8
2014-Jul-20 15:34N 54°45' E 015°56'1514.8
2014-Jul-20 14:34N 54°48' E 016°21'1514.8
2014-Jul-20 13:33N 54°51' E 016°47'1515.1
2014-Jul-20 12:34N 54°54' E 017°12'1514.9
2014-Jul-20 11:33N 54°55' E 017°38'1515.0
2014-Jul-20 10:34N 54°56' E 018°04'1515.0
2014-Jul-20 09:33N 54°55' E 018°30'1515.2
2014-Jul-20 08:33N 54°45' E 018°50'1111.4
2014-Jul-20 07:34N 54°33' E 018°50'1110.7
2014-Jul-20 06:33N 54°32' E 018°32'1 0.2
2014-Jul-20 01:30N 54°33' E 018°31'0 0.0
2014-Jul-20 00:30N 54°33' E 018°31'0 0.0
2014-Jul-19 23:33N 54°33' E 018°31'0 0.0
2014-Jul-19 22:33N 54°33' E 018°31'4 3.7
2014-Jul-19 21:34N 54°32' E 018°37'1212.1
2014-Jul-19 20:33N 54°38' E 018°55'1414.2
2014-Jul-19 19:33N 54°52' E 019°03'1514.7
2014-Jul-19 18:33N 55°06' E 019°11'1515.0
2014-Jul-19 17:33N 55°20' E 019°19'1515.1
2014-Jul-19 16:33N 55°34' E 019°27'1515.1
2014-Jul-19 15:33N 55°49' E 019°35'1515.0
2014-Jul-19 14:33N 56°03' E 019°44'1515.0
2014-Jul-19 13:33N 56°17' E 019°52'1514.9
2014-Jul-19 12:33N 56°31' E 020°00'1514.9
2014-Jul-19 11:33N 56°45' E 020°09'1514.9
2014-Jul-19 10:33N 56°60' E 020°17'16214.7
2014-Jul-18 23:33N 59°27' E 022°25'1514.8
2014-Jul-18 22:33N 59°33' E 022°52'1515.4
2014-Jul-18 21:33N 59°37' E 023°21'1515.2
2014-Jul-18 20:33N 59°42' E 023°49'1515.2
2014-Jul-18 19:34N 59°46' E 024°18'1515.0
2014-Jul-18 18:33N 59°49' E 024°47'1514.9
2014-Jul-18 17:34N 59°52' E 025°17'1515.2
2014-Jul-18 16:33N 59°55' E 025°46'1515.0
2014-Jul-18 15:33N 59°59' E 026°15'1414.5
2014-Jul-18 14:33N 60°01' E 026°44'1414.2
2014-Jul-18 13:33N 60°02' E 027°12'1515.1
2014-Jul-18 12:33N 60°10' E 027°38'7813.0
2014-Jul-18 06:33N 59°53' E 030°11'1 0.0
2014-Jul-17 02:09N 59°53' E 030°12'1 1.9
2014-Jul-17 01:34N 59°53' E 030°10'10511.1
2014-Jul-16 16:06N 59°60' E 026°40'1213.5
2014-Jul-16 15:14N 59°56' E 026°17'38114.3
2014-Jul-15 12:31N 56°04' E 016°47'3315.1
2014-Jul-15 10:19N 55°48' E 015°56'1515.5
2014-Jul-15 09:21N 55°40' E 015°33'1315.6
2014-Jul-15 08:32N 55°34' E 015°13'1515.4
2014-Jul-15 07:33N 55°27' E 014°50'1514.8
2014-Jul-15 06:34N 55°18' E 014°30'1514.8
2014-Jul-15 05:33N 55°06' E 014°13'1714.6
2014-Jul-15 04:26N 54°58' E 013°48'1315.0
2014-Jul-15 03:33N 54°54' E 013°27'1515.1
2014-Jul-15 02:33N 54°48' E 013°02'1514.7
2014-Jul-15 01:33N 54°43' E 012°39'1514.5
2014-Jul-15 00:33N 54°35' E 012°18'1313.2
2014-Jul-14 23:33N 54°25' E 012°03'1514.6
2014-Jul-14 22:33N 54°27' E 011°38'1515.1
2014-Jul-14 21:33N 54°34' E 011°15'1514.2
2014-Jul-14 20:30N 54°34' E 010°49'  

Dump ship's entire track history